Time;durP1;ratioP1;P1;durP2;ratioP2;P2;SDS_P1;SDS_P2;PMS_P1;PMS_P2;Temp;Humidity;BMP_temperature;BMP_pressure;BME280_temperature;BME280_humidity;BME280_pressure;Samples;Min_cycle;Max_cycle;Signal;HPM_P1;HPM_P2
2021/06/02 00:00:15;;;;;;;0.63;0.60;;;19.50;99.90;;;;;;5070326;28;20422;-62
2021/06/02 00:02:55;;;;;;;1.00;0.80;;;19.40;99.90;;;;;;5070063;28;20028;-64
2021/06/02 00:05:23;;;;;;;0.75;0.75;;;19.30;99.90;;;;;;5069573;28;20036;-62
2021/06/02 00:07:49;;;;;;;1.17;0.65;;;19.20;99.90;;;;;;5069867;28;20020;-62
2021/06/02 00:10:17;;;;;;;0.73;0.60;;;19.30;99.90;;;;;;5070116;28;20031;-62
2021/06/02 00:12:44;;;;;;;0.55;0.50;;;19.20;99.90;;;;;;5070543;28;20024;-62
2021/06/02 00:15:11;;;;;;;0.55;0.55;;;19.40;99.90;;;;;;5068302;28;20151;-62
2021/06/02 00:17:38;;;;;;;0.68;0.68;;;19.40;99.90;;;;;;5069859;28;20036;-61
2021/06/02 00:20:07;;;;;;;0.60;0.60;;;19.40;99.90;;;;;;5069264;28;20028;-61
2021/06/02 00:22:34;;;;;;;1.25;0.73;;;19.50;99.90;;;;;;5069179;28;20064;-61
2021/06/02 00:25:00;;;;;;;0.70;0.70;;;19.40;99.90;;;;;;5069517;28;20025;-62
2021/06/02 00:27:26;;;;;;;0.75;0.60;;;19.40;99.90;;;;;;5069741;28;20210;-62
2021/06/02 00:29:52;;;;;;;1.15;0.80;;;19.30;99.90;;;;;;5069646;28;20036;-62
2021/06/02 00:32:20;;;;;;;0.55;0.55;;;19.50;99.90;;;;;;5069269;28;20012;-62
2021/06/02 00:34:49;;;;;;;2.60;0.73;;;19.50;99.90;;;;;;5069443;28;20146;-62
2021/06/02 00:37:15;;;;;;;0.60;0.52;;;19.50;99.90;;;;;;5069893;28;20024;-62
2021/06/02 00:39:47;;;;;;;0.85;0.50;;;19.50;99.90;;;;;;5069961;28;20062;-62
2021/06/02 00:42:12;;;;;;;0.85;0.68;;;19.30;99.90;;;;;;5069682;28;20020;-61
2021/06/02 00:44:38;;;;;;;1.95;0.77;;;19.50;99.90;;;;;;5067793;28;20454;-61
2021/06/02 00:47:04;;;;;;;0.75;0.70;;;19.50;99.90;;;;;;5069084;28;20036;-61
2021/06/02 00:49:31;;;;;;;0.60;0.50;;;19.50;99.90;;;;;;5068439;28;20517;-61
2021/06/02 00:51:58;;;;;;;1.15;0.75;;;19.50;99.90;;;;;;5070052;28;20056;-61
2021/06/02 00:54:26;;;;;;;1.13;0.80;;;19.50;99.90;;;;;;5070164;28;20032;-61
2021/06/02 00:56:54;;;;;;;0.50;0.50;;;19.40;99.90;;;;;;5070625;28;20032;-61
2021/06/02 00:59:33;;;;;;;0.75;0.50;;;19.60;99.90;;;;;;5070460;28;20055;-61
2021/06/02 01:02:00;;;;;;;0.60;0.60;;;19.60;99.90;;;;;;5069474;28;20406;-62
2021/06/02 01:04:27;;;;;;;1.00;0.60;;;19.70;99.90;;;;;;5069949;28;20020;-62
2021/06/02 01:06:53;;;;;;;0.80;0.60;;;19.70;99.90;;;;;;5069523;28;20387;-62
2021/06/02 01:09:24;;;;;;;0.70;0.60;;;19.70;99.90;;;;;;5070379;28;20016;-62
2021/06/02 01:11:51;;;;;;;1.40;0.60;;;19.50;99.90;;;;;;5070415;28;20029;-61
2021/06/02 01:14:20;;;;;;;0.70;0.57;;;19.60;99.90;;;;;;5070454;28;20017;-61
2021/06/02 01:16:46;;;;;;;0.50;0.50;;;19.50;99.90;;;;;;5069575;28;20025;-62
2021/06/02 01:19:13;;;;;;;0.50;0.50;;;19.60;99.90;;;;;;5069791;28;20096;-62
2021/06/02 01:22:11;;;;;;;1.08;0.70;;;19.50;99.90;;;;;;5069834;28;20028;-62
2021/06/02 01:24:37;;;;;;;0.75;0.57;;;19.50;99.90;;;;;;5057575;28;20453;-62
2021/06/02 01:27:05;;;;;;;0.80;0.80;;;19.60;99.90;;;;;;5069872;28;20926;-62
2021/06/02 01:29:34;;;;;;;1.20;0.73;;;19.40;99.90;;;;;;5070168;28;20031;-62
2021/06/02 01:32:06;;;;;;;4.30;0.80;;;19.20;99.90;;;;;;5069126;28;20094;-62
2021/06/02 01:35:09;;;;;;;0.70;0.70;;;19.20;99.90;;;;;;5069753;28;20487;-62
2021/06/02 01:38:05;;;;;;;0.68;0.60;;;19.00;99.90;;;;;;5069135;28;20098;-62
2021/06/02 01:40:39;;;;;;;2.13;1.00;;;19.20;99.90;;;;;;5069941;28;20039;-62
2021/06/02 01:43:27;;;;;;;0.55;0.55;;;19.20;99.90;;;;;;5069690;28;20047;-61
2021/06/02 01:46:18;;;;;;;0.70;0.70;;;19.10;99.90;;;;;;5069670;28;20497;-61
2021/06/02 01:49:15;;;;;;;0.70;0.60;;;19.10;99.90;;;;;;5069698;28;20054;-61
2021/06/02 01:52:07;;;;;;;0.60;0.55;;;19.20;99.90;;;;;;5060010;28;20113;-61
2021/06/02 01:54:36;;;;;;;0.60;0.52;;;19.30;99.90;;;;;;5069410;28;20153;-61
2021/06/02 01:57:20;;;;;;;0.40;0.40;;;19.30;99.90;;;;;;5069472;28;20098;-61
2021/06/02 01:59:46;;;;;;;;;;;19.30;99.90;;;;;;5069997;28;20082;-62
2021/06/02 02:02:30;;;;;;;0.93;0.50;;;19.30;99.90;;;;;;5067821;28;20376;-61
2021/06/02 02:05:22;;;;;;;0.93;0.73;;;19.30;99.90;;;;;;5068979;28;20055;-61
2021/06/02 02:08:11;;;;;;;0.60;0.60;;;19.40;99.90;;;;;;5069024;28;20074;-62
2021/06/02 02:10:45;;;;;;;1.30;0.77;;;19.30;99.90;;;;;;5069062;28;20040;-62
2021/06/02 02:13:40;;;;;;;0.60;0.60;;;19.40;99.90;;;;;;5069177;28;20020;-62
2021/06/02 02:16:41;;;;;;;0.50;0.50;;;19.30;99.90;;;;;;5068977;28;20471;-61
2021/06/02 02:19:13;;;;;;;0.47;0.45;;;19.30;99.90;;;;;;5045996;28;20066;-61
2021/06/02 02:22:26;;;;;;;0.70;0.70;;;19.00;99.90;;;;;;5064298;28;20052;-62
2021/06/02 02:25:08;;;;;;;0.70;0.70;;;18.90;99.90;;;;;;5048742;28;20179;-62
2021/06/02 02:28:14;;;;;;;0.50;0.45;;;18.80;99.90;;;;;;5068545;28;20094;-62
2021/06/02 02:31:06;;;;;;;1.27;0.75;;;18.90;99.90;;;;;;5068303;28;20025;-62
2021/06/02 02:33:48;;;;;;;1.23;0.77;;;19.00;99.90;;;;;;5068603;28;20545;-62
2021/06/02 02:36:30;;;;;;;0.45;0.45;;;19.10;99.90;;;;;;5068850;28;20027;-62
2021/06/02 02:39:23;;;;;;;0.80;0.65;;;19.00;99.90;;;;;;5068832;28;20036;-62
2021/06/02 02:42:12;;;;;;;1.40;0.82;;;19.40;99.90;;;;;;5067068;28;20179;-62
2021/06/02 02:44:59;;;;;;;0.60;0.52;;;19.40;99.90;;;;;;5066084;28;20028;-62
2021/06/02 02:47:44;;;;;;;0.60;0.60;;;19.50;99.90;;;;;;5065752;28;20032;-62
2021/06/02 02:50:24;;;;;;;0.60;0.60;;;19.30;99.90;;;;;;5065746;28;20025;-61
2021/06/02 02:53:02;;;;;;;0.55;0.55;;;19.40;99.90;;;;;;5066315;28;20032;-61
2021/06/02 02:55:35;;;;;;;0.98;0.70;;;19.50;99.90;;;;;;5066759;28;20059;-61
2021/06/02 02:58:25;;;;;;;0.60;0.55;;;19.50;99.90;;;;;;5066658;28;20477;-61
2021/06/02 03:01:00;;;;;;;0.50;0.50;;;19.40;99.90;;;;;;5066117;28;20032;-61
2021/06/02 03:03:43;;;;;;;0.70;0.60;;;19.20;99.90;;;;;;5064727;28;20056;-62
2021/06/02 03:06:25;;;;;;;0.43;0.43;;;19.20;99.90;;;;;;5066456;28;20029;-62
2021/06/02 03:09:00;;;;;;;0.63;0.60;;;19.00;99.90;;;;;;5066442;28;20109;-62
2021/06/02 03:11:41;;;;;;;1.00;0.88;;;18.80;99.90;;;;;;5065281;28;20047;-61
2021/06/02 03:14:22;;;;;;;0.70;0.63;;;18.60;99.90;;;;;;5066262;28;20089;-62
2021/06/02 03:17:33;;;;;;;1.45;0.80;;;18.40;99.90;;;;;;5067065;28;20027;-62
2021/06/02 03:20:25;;;;;;;0.95;0.65;;;18.50;99.90;;;;;;5063014;28;20503;-62
2021/06/02 03:23:22;;;;;;;0.70;0.70;;;18.40;99.90;;;;;;5063828;28;20131;-62
2021/06/02 03:26:07;;;;;;;0.63;0.63;;;18.30;99.90;;;;;;5066753;28;20025;-62
2021/06/02 03:29:03;;;;;;;0.57;0.47;;;18.20;99.90;;;;;;5065753;28;20602;-62
2021/06/02 03:31:48;;;;;;;0.80;0.80;;;18.30;99.90;;;;;;5065514;28;20044;-62
2021/06/02 03:34:27;;;;;;;0.95;0.88;;;18.30;99.90;;;;;;5066409;28;20028;-62
2021/06/02 03:37:06;;;;;;;0.88;0.82;;;18.10;99.90;;;;;;5066291;28;20031;-62
2021/06/02 03:39:46;;;;;;;1.10;1.00;;;17.90;99.90;;;;;;5066507;28;20086;-62
2021/06/02 03:42:41;;;;;;;1.27;0.75;;;18.10;99.90;;;;;;5065993;28;20036;-62
2021/06/02 03:45:42;;;;;;;0.98;0.60;;;18.00;99.90;;;;;;5056938;28;20124;-61
2021/06/02 03:48:30;;;;;;;0.60;0.60;;;18.10;99.90;;;;;;5065497;28;20029;-64
2021/06/02 03:51:02;;;;;;;1.33;0.85;;;18.20;99.90;;;;;;5066172;28;20727;-62
2021/06/02 03:53:42;;;;;;;0.50;0.50;;;18.20;99.90;;;;;;5065092;28;20029;-62
2021/06/02 03:56:27;;;;;;;0.63;0.63;;;18.20;99.90;;;;;;5062175;28;20029;-63
2021/06/02 03:59:23;;;;;;;0.55;0.50;;;18.20;99.90;;;;;;5064907;28;20051;-64
2021/06/02 04:02:01;;;;;;;1.30;0.63;;;18.00;99.90;;;;;;5058297;28;20021;-67
2021/06/02 04:05:10;;;;;;;0.55;0.55;;;18.00;99.90;;;;;;5058718;28;20110;-66
2021/06/02 04:07:43;;;;;;;1.50;0.60;;;18.00;99.90;;;;;;5065800;28;20028;-66
2021/06/02 04:10:31;;;;;;;0.75;0.68;;;17.80;99.90;;;;;;5061096;28;20017;-67
2021/06/02 04:13:22;;;;;;;0.52;0.52;;;17.40;99.90;;;;;;5012991;28;20052;-66
2021/06/02 04:15:49;;;;;;;1.10;0.77;;;17.30;99.90;;;;;;5058773;28;20503;-65
2021/06/02 04:18:24;;;;;;;0.82;0.60;;;17.30;99.90;;;;;;5065941;28;20035;-65
2021/06/02 04:20:51;;;;;;;0.70;0.70;;;17.30;99.90;;;;;;5061497;28;20056;-65
2021/06/02 04:23:18;;;;;;;0.98;0.73;;;17.30;99.90;;;;;;5065991;28;20115;-64
2021/06/02 04:25:46;;;;;;;1.13;0.65;;;17.30;99.90;;;;;;5065154;28;20101;-65
2021/06/02 04:28:13;;;;;;;0.95;0.60;;;17.40;99.90;;;;;;5058217;28;20115;-66
2021/06/02 04:30:44;;;;;;;2.55;1.13;;;17.40;99.90;;;;;;5045861;28;20021;-67
2021/06/02 04:33:15;;;;;;;0.70;0.70;;;17.60;99.90;;;;;;5047187;28;20059;-66
2021/06/02 04:35:49;;;;;;;1.15;0.73;;;17.70;99.90;;;;;;5065987;28;20666;-67
2021/06/02 04:38:19;;;;;;;0.75;0.50;;;17.80;99.90;;;;;;5065949;28;20108;-66
2021/06/02 04:40:46;;;;;;;0.88;0.80;;;17.80;99.90;;;;;;5068612;28;20052;-67
2021/06/02 04:43:13;;;;;;;1.65;0.73;;;17.80;99.90;;;;;;5067518;28;20528;-66
2021/06/02 04:45:55;;;;;;;0.93;0.63;;;17.70;99.90;;;;;;5069242;28;20617;-67
2021/06/02 04:48:22;;;;;;;0.77;0.70;;;17.80;99.90;;;;;;5048062;28;20033;-67
2021/06/02 04:51:11;;;;;;;2.10;0.73;;;17.70;99.90;;;;;;5066212;28;20024;-67
2021/06/02 04:54:12;;;;;;;1.10;0.80;;;17.50;99.90;;;;;;5037567;28;20095;-69
2021/06/02 04:57:30;;;;;;;1.00;0.70;;;17.50;99.90;;;;;;5049135;28;20025;-68
2021/06/02 05:00:03;;;;;;;0.90;0.60;;;17.50;99.90;;;;;;5005544;28;20041;-70
2021/06/02 05:02:43;;;;;;;1.38;0.80;;;17.60;99.90;;;;;;5052003;28;20021;-70
2021/06/02 05:05:12;;;;;;;0.95;0.70;;;17.60;99.90;;;;;;5065242;28;20060;-71
2021/06/02 05:07:50;;;;;;;0.82;0.70;;;17.50;99.90;;;;;;5065343;28;20034;-71
2021/06/02 05:11:08;;;;;;;1.45;1.00;;;17.50;99.90;;;;;;5068216;28;20028;-69
2021/06/02 05:14:01;;;;;;;0.52;0.52;;;17.50;99.90;;;;;;5041072;28;20036;-68
2021/06/02 05:17:01;;;;;;;0.80;0.80;;;17.40;99.90;;;;;;5049706;28;20492;-68
2021/06/02 05:20:21;;;;;;;0.70;0.70;;;17.50;99.90;;;;;;5059048;28;20025;-69
2021/06/02 05:22:50;;;;;;;0.60;0.60;;;17.40;99.90;;;;;;5064702;28;20052;-69
2021/06/02 05:25:48;;;;;;;0.75;0.60;;;17.20;99.90;;;;;;5066654;28;20047;-69
2021/06/02 05:28:54;;;;;;;1.73;0.70;;;17.20;99.90;;;;;;5000463;28;20052;-69
2021/06/02 05:31:57;;;;;;;0.77;0.77;;;17.10;99.90;;;;;;5063590;28;20028;-70
2021/06/02 05:35:04;;;;;;;0.52;0.52;;;17.20;99.90;;;;;;5065379;28;20633;-70
2021/06/02 05:37:51;;;;;;;0.60;0.60;;;17.10;99.90;;;;;;5047135;28;20040;-69
2021/06/02 05:40:35;;;;;;;0.60;0.60;;;17.30;99.90;;;;;;5068603;28;20017;-69
2021/06/02 05:43:22;;;;;;;0.60;0.60;;;17.20;99.90;;;;;;5067790;28;20031;-69
2021/06/02 05:46:02;;;;;;;0.60;0.60;;;17.20;99.90;;;;;;5068729;28;20044;-68
2021/06/02 05:48:52;;;;;;;0.68;0.68;;;17.20;99.90;;;;;;5065302;28;20487;-69
2021/06/02 05:51:33;;;;;;;0.57;0.57;;;17.30;99.90;;;;;;5056955;28;20083;-70
2021/06/02 05:54:20;;;;;;;0.95;0.60;;;17.10;99.90;;;;;;5064529;28;20032;-70
2021/06/02 05:57:10;;;;;;;0.77;0.60;;;17.20;99.90;;;;;;5064317;28;20016;-67
2021/06/02 06:00:02;;;;;;;0.40;0.40;;;17.30;99.90;;;;;;5065522;28;20406;-69
2021/06/02 06:02:47;;;;;;;0.85;0.50;;;17.30;99.90;;;;;;5063093;28;20032;-71
2021/06/02 06:05:23;;;;;;;0.57;0.57;;;17.40;99.90;;;;;;5065396;28;20024;-66
2021/06/02 06:08:19;;;;;;;0.70;0.65;;;17.30;99.90;;;;;;5064894;28;20031;-68
2021/06/02 06:11:03;;;;;;;0.88;0.63;;;17.20;99.90;;;;;;5045339;28;20315;-70
2021/06/02 06:13:31;;;;;;;0.60;0.60;;;17.20;99.90;;;;;;5057781;28;20020;-68
2021/06/02 06:16:25;;;;;;;0.90;0.60;;;17.10;99.90;;;;;;5065438;28;20473;-70
2021/06/02 06:19:12;;;;;;;0.70;0.70;;;17.20;99.90;;;;;;5064957;28;20529;-67
2021/06/02 06:21:52;;;;;;;0.60;0.60;;;17.30;99.90;;;;;;5065503;28;20082;-66
2021/06/02 06:24:27;;;;;;;0.57;0.50;;;17.50;99.90;;;;;;5065410;28;20078;-68
2021/06/02 06:27:11;;;;;;;2.15;0.80;;;17.50;99.90;;;;;;5064799;28;20477;-70
2021/06/02 06:29:42;;;;;;;0.80;0.80;;;17.70;99.90;;;;;;5065052;28;20034;-69
2021/06/02 06:32:09;;;;;;;1.13;0.70;;;17.70;99.90;;;;;;5064618;28;20055;-70
2021/06/02 06:34:36;;;;;;;0.65;0.65;;;17.60;99.90;;;;;;5065065;28;20036;-71
2021/06/02 06:37:04;;;;;;;0.70;0.70;;;17.60;99.90;;;;;;5064226;28;20107;-70
2021/06/02 06:39:39;;;;;;;1.30;0.80;;;17.80;99.90;;;;;;5064898;28;20028;-74
2021/06/02 06:42:06;;;;;;;1.30;0.73;;;17.90;99.90;;;;;;5064304;28;20020;-75
2021/06/02 06:44:35;;;;;;;1.55;0.80;;;17.70;99.90;;;;;;5062905;28;20034;-77
2021/06/02 06:47:03;;;;;;;1.00;0.75;;;17.70;99.90;;;;;;5065836;28;20040;-78
2021/06/02 06:49:32;;;;;;;0.80;0.60;;;17.80;99.90;;;;;;5064298;28;20052;-75
2021/06/02 06:51:59;;;;;;;0.80;0.80;;;17.80;99.90;;;;;;5064580;28;20029;-74
2021/06/02 06:54:26;;;;;;;1.27;0.70;;;17.60;99.90;;;;;;5064447;28;20025;-75
2021/06/02 06:56:54;;;;;;;3.25;1.02;;;17.60;99.90;;;;;;5064734;28;20626;-70
2021/06/02 09:47:18;;;;;;;1.95;1.40;;;17.10;99.90;;;;;;5125559;27;20111;-58
2021/06/02 09:49:55;;;;;;;0.90;0.90;;;17.30;99.90;;;;;;5124284;28;20038;-58
2021/06/02 09:52:45;;;;;;;1.67;1.10;;;17.40;99.90;;;;;;5101149;28;20076;-58
2021/06/02 09:55:24;;;;;;;1.45;0.90;;;17.50;99.90;;;;;;5119846;28;20500;-58
2021/06/02 09:57:55;;;;;;;1.15;0.95;;;17.70;99.90;;;;;;5122183;28;20011;-58
2021/06/02 10:00:22;;;;;;;1.10;0.82;;;17.60;99.90;;;;;;5124926;28;20028;-56
2021/06/02 10:03:05;;;;;;;0.82;0.82;;;17.50;99.90;;;;;;5118225;28;20016;-56
2021/06/02 10:05:38;;;;;;;1.83;0.90;;;17.70;99.90;;;;;;5129242;27;20032;-56
2021/06/02 10:08:05;;;;;;;0.80;0.80;;;17.80;99.90;;;;;;5144774;27;20027;-56
2021/06/02 10:10:31;;;;;;;1.67;0.93;;;17.50;99.90;;;;;;5125371;28;20737;-56
2021/06/02 10:13:03;;;;;;;2.63;1.05;;;17.50;99.90;;;;;;5125249;28;20507;-56
2021/06/02 10:15:31;;;;;;;1.27;0.85;;;17.60;99.90;;;;;;5122302;28;20026;-56
2021/06/02 10:17:59;;;;;;;1.65;0.80;;;17.50;99.90;;;;;;5112783;28;20027;-57
2021/06/02 10:20:25;;;;;;;0.80;0.73;;;17.50;99.90;;;;;;5124491;28;20046;-56
2021/06/02 10:22:53;;;;;;;1.55;1.27;;;17.80;99.90;;;;;;5123586;28;20492;-56
2021/06/02 10:25:20;;;;;;;1.00;0.90;;;17.60;99.90;;;;;;5117495;28;20026;-56
2021/06/02 10:27:48;;;;;;;1.08;0.82;;;17.90;99.90;;;;;;5118385;28;20381;-57
2021/06/02 10:30:15;;;;;;;1.23;0.90;;;17.80;99.90;;;;;;5125296;28;20023;-57
2021/06/02 10:32:41;;;;;;;0.90;0.90;;;17.80;99.90;;;;;;5124898;28;20077;-57
2021/06/02 10:35:07;;;;;;;0.85;0.80;;;17.80;99.90;;;;;;5124563;28;20026;-57
2021/06/02 10:37:39;;;;;;;1.20;0.98;;;17.90;99.90;;;;;;5125402;28;20080;-57
2021/06/02 10:40:09;;;;;;;1.17;0.80;;;17.70;99.90;;;;;;5110787;27;20595;-56
2021/06/02 10:42:46;;;;;;;1.00;0.90;;;17.90;99.90;;;;;;5143918;27;20073;-57
2021/06/02 10:45:27;;;;;;;0.90;0.90;;;18.00;99.90;;;;;;5124358;28;20066;-57
2021/06/02 10:47:58;;;;;;;0.60;0.60;;;18.00;99.90;;;;;;5124393;28;20076;-57
2021/06/02 10:50:28;;;;;;;1.27;1.17;;;18.10;99.90;;;;;;5124377;28;20043;-57
2021/06/02 10:52:54;;;;;;;0.90;0.90;;;17.80;99.90;;;;;;5105225;28;20030;-56
2021/06/02 10:55:38;;;;;;;0.85;0.80;;;17.80;99.90;;;;;;5130999;27;20027;-56
2021/06/02 10:58:15;;;;;;;1.00;0.90;;;17.90;99.90;;;;;;5111978;27;20117;-57
2021/06/02 11:00:41;;;;;;;1.45;0.90;;;18.00;99.90;;;;;;5106911;28;20032;-57
2021/06/02 11:03:20;;;;;;;0.90;0.90;;;18.10;99.90;;;;;;5104380;28;20032;-57
2021/06/02 11:05:45;;;;;;;1.25;0.80;;;18.00;99.90;;;;;;5109027;28;20023;-57
2021/06/02 11:08:11;;;;;;;0.90;0.90;;;18.00;99.90;;;;;;5108461;28;20024;-57
2021/06/02 11:10:37;;;;;;;0.80;0.80;;;18.20;99.90;;;;;;5104609;28;20020;-57
2021/06/02 11:13:04;;;;;;;0.90;0.90;;;18.20;99.90;;;;;;5111151;28;20020;-57
2021/06/02 11:15:30;;;;;;;0.98;0.88;;;18.20;99.90;;;;;;5110261;28;20055;-57
2021/06/02 11:18:19;;;;;;;0.98;0.90;;;18.30;99.90;;;;;;5110420;28;20047;-57
2021/06/02 11:20:52;;;;;;;0.90;0.90;;;18.20;99.90;;;;;;5110073;28;20544;-57
2021/06/02 11:23:27;;;;;;;0.73;0.73;;;18.40;99.90;;;;;;5110410;28;20495;-57
2021/06/02 11:25:53;;;;;;;0.80;0.80;;;18.30;99.90;;;;;;5110267;28;20314;-57
2021/06/02 11:28:42;;;;;;;0.93;0.80;;;18.40;99.90;;;;;;5110422;28;20020;-57
2021/06/02 11:31:27;;;;;;;0.70;0.70;;;18.40;99.90;;;;;;5110342;28;20047;-57
2021/06/02 11:34:13;;;;;;;0.82;0.82;;;18.50;99.90;;;;;;5109878;28;20023;-57
2021/06/02 11:37:16;;;;;;;0.80;0.80;;;18.20;99.90;;;;;;5110190;28;20043;-57
2021/06/02 11:39:43;;;;;;;1.05;0.95;;;18.40;99.90;;;;;;4990300;28;20029;-57
2021/06/02 11:42:11;;;;;;;1.05;0.90;;;18.30;99.90;;;;;;5087802;28;20040;-57
2021/06/02 11:44:38;;;;;;;0.98;0.80;;;18.30;99.90;;;;;;5111483;27;20019;-56
2021/06/02 11:47:07;;;;;;;1.10;1.00;;;18.60;99.90;;;;;;5110793;27;20036;-56
2021/06/02 11:49:34;;;;;;;0.70;0.70;;;18.60;99.90;;;;;;5109247;28;20503;-56
2021/06/02 11:52:07;;;;;;;0.80;0.80;;;18.90;99.90;;;;;;5107803;28;20598;-57
2021/06/02 11:54:52;;;;;;;0.95;0.95;;;19.00;99.90;;;;;;5109016;28;20105;-57
2021/06/02 11:57:36;;;;;;;0.73;0.73;;;19.20;99.90;;;;;;5108787;28;20027;-57
2021/06/02 12:00:13;;;;;;;0.82;0.82;;;19.30;99.90;;;;;;5108339;28;20024;-56
2021/06/02 12:02:40;;;;;;;0.80;0.80;;;19.40;99.90;;;;;;5108403;28;20423;-57
2021/06/02 12:05:18;;;;;;;0.70;0.70;;;19.50;99.90;;;;;;5090506;28;20361;-56
2021/06/02 12:07:49;;;;;;;0.70;0.70;;;19.50;99.90;;;;;;5115180;27;20268;-56
2021/06/02 12:10:16;;;;;;;0.70;0.70;;;19.50;99.90;;;;;;5096708;28;20024;-56
2021/06/02 12:12:44;;;;;;;0.70;0.70;;;19.60;99.90;;;;;;5108158;28;20049;-57
2021/06/02 12:15:11;;;;;;;1.00;0.73;;;19.60;99.90;;;;;;5108442;28;20085;-55
2021/06/02 12:17:37;;;;;;;0.65;0.65;;;19.60;99.90;;;;;;5108548;28;20481;-56
2021/06/02 12:20:11;;;;;;;1.38;0.80;;;19.60;99.90;;;;;;5108048;28;20024;-56
2021/06/02 12:22:37;;;;;;;1.17;0.85;;;19.50;99.90;;;;;;5108766;28;20035;-56
2021/06/02 12:25:12;;;;;;;0.88;0.65;;;19.60;99.90;;;;;;5107668;28;20020;-56
2021/06/02 12:27:44;;;;;;;1.17;0.98;;;19.50;99.90;;;;;;5108970;28;20023;-56
2021/06/02 12:30:34;;;;;;;0.68;0.68;;;19.50;99.90;;;;;;5108107;28;20054;-56
2021/06/02 12:33:07;;;;;;;1.20;0.68;;;19.50;99.90;;;;;;5107801;28;20031;-56
2021/06/02 12:35:38;;;;;;;0.80;0.80;;;19.60;99.90;;;;;;5107644;28;20028;-56
2021/06/02 12:38:07;;;;;;;0.70;0.70;;;19.60;99.90;;;;;;5108378;28;20028;-54
2021/06/02 12:40:35;;;;;;;0.73;0.73;;;19.80;99.90;;;;;;5104953;28;20023;-55
2021/06/02 12:43:08;;;;;;;0.80;0.70;;;19.80;99.90;;;;;;5107022;28;20031;-55
2021/06/02 12:45:34;;;;;;;0.73;0.70;;;19.80;99.90;;;;;;5105289;28;20545;-55
2021/06/02 12:48:00;;;;;;;0.73;0.73;;;19.80;99.90;;;;;;5107876;28;20327;-55
2021/06/02 12:50:37;;;;;;;0.70;0.70;;;19.90;99.90;;;;;;5107304;28;20484;-56
2021/06/02 12:53:04;;;;;;;0.82;0.82;;;19.90;99.90;;;;;;5106570;28;20069;-55
2021/06/02 12:55:33;;;;;;;1.10;0.80;;;19.80;99.90;;;;;;5107307;28;20258;-55
2021/06/02 12:58:16;;;;;;;0.70;0.70;;;19.80;99.90;;;;;;5107306;28;20374;-56
2021/06/02 13:00:43;;;;;;;1.08;0.80;;;19.90;99.90;;;;;;5107114;28;20023;-56
2021/06/02 13:03:12;;;;;;;1.55;1.10;;;19.80;99.90;;;;;;5107772;28;20084;-54
2021/06/02 13:05:38;;;;;;;1.98;1.40;;;19.80;99.90;;;;;;5107213;28;20055;-56
2021/06/02 13:08:06;;;;;;;2.45;1.63;;;19.80;99.90;;;;;;5107396;28;20058;-54
2021/06/02 13:10:33;;;;;;;2.10;1.40;;;19.80;99.90;;;;;;5108131;28;20457;-55
2021/06/02 13:13:01;;;;;;;1.10;1.00;;;19.90;99.90;;;;;;5108101;28;20038;-54
2021/06/02 13:15:33;;;;;;;1.02;0.98;;;19.90;99.90;;;;;;5107102;28;20099;-55
2021/06/02 13:17:59;;;;;;;1.20;1.10;;;20.00;99.90;;;;;;5107212;28;20028;-54
2021/06/02 13:20:40;;;;;;;1.58;1.10;;;20.00;99.90;;;;;;5106949;28;20507;-55
2021/06/02 13:23:30;;;;;;;2.00;1.20;;;20.00;99.90;;;;;;5107296;28;20027;-54
2021/06/02 13:26:02;;;;;;;1.98;1.67;;;19.90;99.90;;;;;;5106822;28;20124;-55
2021/06/02 13:28:30;;;;;;;2.03;1.20;;;19.80;99.90;;;;;;5107464;28;20485;-56
2021/06/02 13:30:58;;;;;;;2.15;1.08;;;19.90;99.90;;;;;;5107071;28;20357;-55
2021/06/02 13:33:24;;;;;;;1.30;1.13;;;19.90;99.90;;;;;;5107403;28;20778;-55
2021/06/02 13:36:05;;;;;;;1.58;1.13;;;19.90;99.90;;;;;;5106528;28;20024;-55
2021/06/02 13:38:31;;;;;;;0.75;0.75;;;20.00;99.90;;;;;;5107917;28;20063;-54
2021/06/02 13:40:57;;;;;;;1.23;0.90;;;20.00;99.90;;;;;;5106851;28;20067;-55
2021/06/02 13:43:23;;;;;;;0.70;0.70;;;20.10;99.90;;;;;;5107123;28;20024;-55
2021/06/02 13:46:05;;;;;;;1.05;0.77;;;20.20;99.90;;;;;;5106377;28;20068;-55
2021/06/02 13:48:37;;;;;;;0.60;0.60;;;20.20;99.90;;;;;;5107669;28;20053;-55
2021/06/02 13:51:24;;;;;;;1.05;0.80;;;20.20;99.90;;;;;;5106895;28;20088;-55
2021/06/02 13:54:11;;;;;;;0.77;0.77;;;20.20;99.90;;;;;;5106766;28;20024;-56
2021/06/02 13:57:14;;;;;;;0.70;0.70;;;20.20;99.90;;;;;;5087604;28;20058;-56
2021/06/02 13:59:40;;;;;;;0.60;0.60;;;20.30;99.90;;;;;;5106881;28;20019;-56
2021/06/02 14:02:09;;;;;;;1.05;0.60;;;20.40;99.90;;;;;;5106904;28;20501;-55
2021/06/02 14:04:37;;;;;;;1.02;0.82;;;20.40;99.90;;;;;;5106788;28;20085;-55
2021/06/02 14:07:08;;;;;;;0.95;0.90;;;20.40;99.90;;;;;;5107141;28;20081;-56
2021/06/02 14:09:34;;;;;;;1.75;1.00;;;20.40;99.90;;;;;;5107525;28;20024;-55
2021/06/02 14:12:00;;;;;;;1.63;1.20;;;20.40;99.90;;;;;;5107048;28;20477;-55
2021/06/02 14:14:27;;;;;;;1.48;1.17;;;20.40;99.90;;;;;;5106649;28;20048;-54
2021/06/02 14:16:53;;;;;;;1.48;1.10;;;20.40;99.90;;;;;;5106375;28;20076;-54
2021/06/02 14:19:19;;;;;;;1.50;1.38;;;20.40;99.90;;;;;;5106926;28;20035;-55
2021/06/02 14:21:45;;;;;;;1.42;1.05;;;20.40;99.90;;;;;;5106780;28;20036;-54
2021/06/02 14:24:12;;;;;;;1.13;0.88;;;20.50;99.90;;;;;;5106612;28;20049;-55
2021/06/02 14:26:38;;;;;;;1.10;1.00;;;20.50;99.90;;;;;;5106216;28;20092;-56
2021/06/02 14:29:06;;;;;;;1.77;1.30;;;20.50;99.90;;;;;;5107097;28;20020;-55
2021/06/02 14:31:32;;;;;;;1.42;1.08;;;20.60;99.90;;;;;;5107385;28;20400;-55
2021/06/02 14:33:58;;;;;;;1.60;1.05;;;20.50;99.90;;;;;;5109848;28;20016;-55
2021/06/02 14:36:24;;;;;;;1.15;1.00;;;20.60;99.90;;;;;;5110216;28;20085;-55
2021/06/02 14:38:50;;;;;;;1.23;1.05;;;20.60;99.90;;;;;;5095383;28;20034;-55
2021/06/02 14:41:15;;;;;;;1.20;1.10;;;20.60;99.90;;;;;;5090806;28;20032;-54
2021/06/02 14:43:41;;;;;;;0.73;0.73;;;20.70;99.90;;;;;;5088922;28;20103;-55
2021/06/02 14:46:08;;;;;;;0.75;0.70;;;20.70;99.90;;;;;;5089335;28;20068;-54
2021/06/02 14:48:34;;;;;;;2.38;0.90;;;20.70;99.90;;;;;;5089530;28;20020;-53
2021/06/02 14:51:02;;;;;;;0.75;0.70;;;20.70;99.90;;;;;;5088013;28;20252;-54
2021/06/02 14:53:29;;;;;;;1.33;0.90;;;20.70;99.90;;;;;;5089104;28;20028;-55
2021/06/02 14:55:55;;;;;;;1.20;1.10;;;20.70;99.90;;;;;;5087245;28;20047;-54
2021/06/02 14:58:21;;;;;;;1.65;1.10;;;20.60;99.90;;;;;;5089661;28;20095;-53
2021/06/02 15:00:46;;;;;;;1.20;1.10;;;20.60;99.90;;;;;;5089406;28;20451;-53
2021/06/02 15:03:12;;;;;;;1.90;1.10;;;20.60;99.90;;;;;;5090124;28;20027;-53
2021/06/02 15:05:37;;;;;;;1.02;0.80;;;20.70;99.90;;;;;;5089097;28;20032;-54
2021/06/02 15:08:04;;;;;;;0.95;0.80;;;20.70;99.90;;;;;;5089737;28;20059;-53
2021/06/02 15:10:30;;;;;;;1.63;1.20;;;20.60;99.90;;;;;;5089394;28;20078;-53
2021/06/02 15:12:57;;;;;;;2.25;1.08;;;20.50;99.90;;;;;;5089001;28;20020;-52
2021/06/02 15:15:24;;;;;;;1.35;0.90;;;20.40;99.90;;;;;;5086848;28;20554;-54
2021/06/02 15:17:50;;;;;;;1.05;0.80;;;20.50;99.90;;;;;;5088986;28;20609;-54
2021/06/02 15:20:18;;;;;;;1.13;0.80;;;20.60;99.90;;;;;;5089292;28;20028;-53
2021/06/02 15:22:45;;;;;;;1.05;0.95;;;20.50;99.90;;;;;;5089408;28;20016;-49
2021/06/02 15:25:11;;;;;;;1.48;0.95;;;20.50;99.90;;;;;;5089363;28;20389;-54
2021/06/02 15:27:37;;;;;;;0.80;0.80;;;20.60;99.90;;;;;;5106477;28;20034;-52
2021/06/02 15:30:07;;;;;;;1.00;0.90;;;20.70;99.90;;;;;;5108970;28;20086;-52
2021/06/02 15:32:34;;;;;;;1.20;1.10;;;20.70;99.90;;;;;;5109128;28;20442;-51
2021/06/02 15:35:00;;;;;;;1.85;1.48;;;20.80;99.90;;;;;;5109558;28;20184;-52
2021/06/02 15:37:31;;;;;;;1.30;1.00;;;20.90;99.90;;;;;;5109132;28;20106;-53
2021/06/02 15:40:00;;;;;;;1.70;1.10;;;20.90;99.90;;;;;;5107940;28;20054;-52
2021/06/02 15:42:26;;;;;;;1.48;1.38;;;21.00;99.90;;;;;;5109058;28;20102;-52
2021/06/02 15:44:52;;;;;;;1.67;1.05;;;21.00;99.90;;;;;;5090253;28;20114;-52
2021/06/02 15:47:22;;;;;;;1.40;1.20;;;21.00;99.90;;;;;;5107008;28;20020;-54
2021/06/02 15:49:49;;;;;;;1.48;1.10;;;21.10;99.90;;;;;;5116990;27;20468;-53
2021/06/02 15:52:16;;;;;;;1.85;1.48;;;21.00;99.90;;;;;;5117832;27;20027;-50
2021/06/02 15:55:01;;;;;;;2.83;1.20;;;21.00;99.90;;;;;;5093196;28;20110;-51
2021/06/02 15:57:28;;;;;;;2.05;1.02;;;21.00;99.90;;;;;;5096564;28;20024;-53
2021/06/02 15:59:56;;;;;;;2.15;1.30;;;21.10;99.90;;;;;;5088846;28;20028;-53
2021/06/02 16:02:22;;;;;;;2.05;1.20;;;21.00;99.90;;;;;;5105937;27;20028;-53
2021/06/02 16:04:48;;;;;;;1.83;1.10;;;21.00;99.90;;;;;;5109168;28;20039;-50
2021/06/02 16:07:14;;;;;;;1.40;1.10;;;21.00;99.90;;;;;;5109274;28;20023;-51
2021/06/02 16:09:39;;;;;;;1.77;0.93;;;21.00;99.90;;;;;;5105244;28;20028;-51
2021/06/02 16:12:05;;;;;;;1.17;0.90;;;21.10;99.90;;;;;;5105741;28;20088;-51
2021/06/02 16:14:34;;;;;;;2.15;1.30;;;21.10;99.90;;;;;;5108892;28;20081;-49
2021/06/02 16:16:59;;;;;;;1.98;0.90;;;21.00;99.90;;;;;;5108576;28;20031;-51